Time;durP1;ratioP1;P1;durP2;ratioP2;P2;SDS_P1;SDS_P2;PMS_P1;PMS_P2;Temp;Humidity;BMP_temperature;BMP_pressure;BME280_temperature;BME280_humidity;BME280_pressure;Samples;Min_cycle;Max_cycle;Signal;HPM_P1;HPM_P2
2023/05/10 00:02:02;;;;;;;5.83;5.30;;;;;;;;;;5073581;28;20444;-57
2023/05/10 00:04:29;;;;;;;5.50;5.00;;;;;;;;;;5073325;28;20499;-57
2023/05/10 00:06:56;;;;;;;6.33;5.47;;;;;;;;;;5073373;28;20898;-57
2023/05/10 00:09:23;;;;;;;5.70;5.13;;;;;;;;;;5073272;28;20447;-56
2023/05/10 00:11:50;;;;;;;6.70;5.90;;;;;;;;;;5073394;28;20447;-55
2023/05/10 00:14:17;;;;;;;6.33;5.73;;;;;;;;;;5073371;28;20451;-57
2023/05/10 00:16:45;;;;;;;6.77;6.27;;;;;;;;;;5073261;28;20505;-56
2023/05/10 00:19:12;;;;;;;9.47;6.00;;;;;;;;;;5073238;28;20969;-56
2023/05/10 00:21:39;;;;;;;11.63;6.27;;;;;;;;;;5073132;28;20444;-56
2023/05/10 00:24:06;;;;;;;8.13;6.27;;;;;;;;;;5073268;28;20798;-55
2023/05/10 00:26:33;;;;;;;7.20;6.50;;;;;;;;;;5073237;28;20480;-56
2023/05/10 00:29:00;;;;;;;6.20;5.57;;;;;;;;;;5073456;28;20448;-55
2023/05/10 00:31:27;;;;;;;6.27;5.77;;;;;;;;;;5073113;28;20818;-56
2023/05/10 00:33:56;;;;;;;7.30;5.60;;;;;;;;;;5073023;28;20542;-56
2023/05/10 00:36:23;;;;;;;6.30;5.70;;;;;;;;;;5072955;28;20554;-57
2023/05/10 00:38:50;;;;;;;8.97;5.90;;;;;;;;;;5072922;28;21017;-54
2023/05/10 00:41:17;;;;;;;6.27;5.67;;;;;;;;;;5072902;28;20562;-55
2023/05/10 00:43:44;;;;;;;6.73;6.17;;;;;;;;;;5072984;28;20462;-56
2023/05/10 00:46:11;;;;;;;6.57;5.80;;;;;;;;;;5072797;28;20937;-56
2023/05/10 00:48:38;;;;;;;6.03;5.53;;;;;;;;;;5072766;28;20448;-55
2023/05/10 00:51:07;;;;;;;6.10;5.30;;;;;;;;;;5072765;28;20506;-57
2023/05/10 00:53:34;;;;;;;6.50;5.90;;;;;;;;;;5072626;28;20491;-57
2023/05/10 00:56:03;;;;;;;6.10;5.50;;;;;;;;;;5072905;28;20542;-56
2023/05/10 00:58:30;;;;;;;6.03;5.53;;;;;;;;;;5072817;28;20455;-56
2023/05/10 01:00:58;;;;;;;6.33;5.50;;;;;;;;;;5072718;28;20414;-57
2023/05/10 01:03:25;;;;;;;5.83;5.30;;;;;;;;;;5072650;28;20876;-57
2023/05/10 01:05:51;;;;;;;6.27;5.10;;;;;;;;;;5072785;28;20483;-58
2023/05/10 01:08:20;;;;;;;6.03;5.50;;;;;;;;;;5072816;28;20428;-57
2023/05/10 01:10:48;;;;;;;5.70;5.20;;;;;;;;;;5072731;28;20789;-57
2023/05/10 01:13:20;;;;;;;5.50;5.00;;;;;;;;;;5072760;28;20459;-56
2023/05/10 01:15:47;;;;;;;6.73;5.33;;;;;;;;;;5072462;28;20448;-57
2023/05/10 01:18:14;;;;;;;7.50;5.87;;;;;;;;;;5072744;28;20542;-57
2023/05/10 01:20:44;;;;;;;6.27;5.67;;;;;;;;;;5072747;28;20932;-56
2023/05/10 01:23:26;;;;;;;6.53;5.93;;;;;;;;;;5072769;28;20452;-54
2023/05/10 01:26:12;;;;;;;6.17;5.60;;;;;;;;;;5072429;28;20570;-56
2023/05/10 01:29:05;;;;;;;6.33;5.67;;;;;;;;;;5072330;28;20444;-56
2023/05/10 01:31:42;;;;;;;5.63;5.13;;;;;;;;;;5057118;28;20531;-57
2023/05/10 01:34:13;;;;;;;5.83;5.37;;;;;;;;;;5072471;28;20447;-57
2023/05/10 01:36:43;;;;;;;7.00;5.70;;;;;;;;;;5072307;28;20951;-57
2023/05/10 01:39:13;;;;;;;5.23;4.83;;;;;;;;;;5072817;28;20554;-56
2023/05/10 01:41:46;;;;;;;6.57;5.47;;;;;;;;;;5072775;28;20471;-56
2023/05/10 01:44:18;;;;;;;5.60;5.20;;;;;;;;;;5072486;28;20535;-56
2023/05/10 01:46:47;;;;;;;6.40;5.30;;;;;;;;;;5072278;28;20574;-56
2023/05/10 01:49:18;;;;;;;8.70;5.73;;;;;;;;;;5072271;28;20448;-57
2023/05/10 01:51:48;;;;;;;5.93;5.33;;;;;;;;;;5072496;28;20470;-56
2023/05/10 01:54:18;;;;;;;5.13;4.73;;;;;;;;;;5072387;28;20447;-55
2023/05/10 01:56:46;;;;;;;5.73;5.23;;;;;;;;;;5072420;28;20537;-56
2023/05/10 01:59:15;;;;;;;5.70;5.13;;;;;;;;;;5072252;28;20562;-56
2023/05/10 02:01:42;;;;;;;6.20;4.83;;;;;;;;;;5072127;28;20452;-54
2023/05/10 02:04:10;;;;;;;6.13;5.63;;;;;;;;;;5072379;28;20474;-57
2023/05/10 02:06:39;;;;;;;9.07;4.60;;;;;;;;;;5074010;28;20575;-57
2023/05/10 02:09:06;;;;;;;5.30;4.83;;;;;;;;;;5075799;28;20454;-56
2023/05/10 02:11:34;;;;;;;6.10;5.33;;;;;;;;;;5075715;28;20419;-55
2023/05/10 02:14:01;;;;;;;5.97;5.27;;;;;;;;;;5075639;28;20947;-57
2023/05/10 02:16:30;;;;;;;6.10;5.50;;;;;;;;;;5075701;28;20448;-53
2023/05/10 02:18:58;;;;;;;5.73;5.27;;;;;;;;;;5075716;28;20501;-53
2023/05/10 02:21:25;;;;;;;5.80;5.20;;;;;;;;;;5075623;28;20547;-57
2023/05/10 02:23:55;;;;;;;5.27;4.77;;;;;;;;;;5075625;28;20554;-55
2023/05/10 02:26:23;;;;;;;10.00;4.77;;;;;;;;;;5075435;28;20488;-54
2023/05/10 02:28:50;;;;;;;7.90;5.43;;;;;;;;;;5075332;28;20448;-55
2023/05/10 02:31:18;;;;;;;5.70;5.20;;;;;;;;;;5075497;28;20450;-56
2023/05/10 02:33:45;;;;;;;5.53;5.03;;;;;;;;;;5075421;28;20518;-56
2023/05/10 02:36:14;;;;;;;5.73;5.23;;;;;;;;;;5075521;28;20454;-57
2023/05/10 02:38:41;;;;;;;5.33;4.83;;;;;;;;;;5075180;28;20479;-55
2023/05/10 02:41:10;;;;;;;5.43;4.83;;;;;;;;;;5074971;28;20453;-58
2023/05/10 02:43:38;;;;;;;4.93;4.53;;;;;;;;;;5075360;28;20773;-55
2023/05/10 02:46:05;;;;;;;6.67;5.07;;;;;;;;;;5075093;28;20489;-56
2023/05/10 02:48:32;;;;;;;6.70;5.13;;;;;;;;;;5074927;28;20452;-56
2023/05/10 02:51:04;;;;;;;5.10;4.53;;;;;;;;;;5075077;28;20451;-56
2023/05/10 02:53:32;;;;;;;4.73;4.33;;;;;;;;;;5074986;28;20451;-55
2023/05/10 02:56:01;;;;;;;7.03;5.10;;;;;;;;;;5074790;28;20427;-56
2023/05/10 02:58:29;;;;;;;5.10;4.70;;;;;;;;;;5075037;28;20452;-56
2023/05/10 03:00:56;;;;;;;4.93;4.40;;;;;;;;;;5074871;28;20451;-57
2023/05/10 03:03:23;;;;;;;5.77;5.10;;;;;;;;;;5074779;28;20444;-56
2023/05/10 03:05:49;;;;;;;5.13;4.63;;;;;;;;;;5074633;28;20486;-56
2023/05/10 03:08:16;;;;;;;4.90;4.50;;;;;;;;;;5074520;28;20832;-55
2023/05/10 03:10:50;;;;;;;9.13;4.70;;;;;;;;;;5074556;28;20430;-57
2023/05/10 03:13:22;;;;;;;5.10;4.70;;;;;;;;;;5074756;28;20447;-58
2023/05/10 03:15:54;;;;;;;9.67;5.00;;;;;;;;;;5074598;28;20525;-57
2023/05/10 03:18:23;;;;;;;4.93;4.50;;;;;;;;;;5074457;28;20811;-56
2023/05/10 03:20:51;;;;;;;4.90;4.27;;;;;;;;;;5074323;28;20483;-57
2023/05/10 03:23:23;;;;;;;5.80;4.83;;;;;;;;;;5074831;28;20457;-55
2023/05/10 03:25:51;;;;;;;7.87;4.97;;;;;;;;;;5074355;28;20446;-56
2023/05/10 03:28:19;;;;;;;5.40;4.43;;;;;;;;;;5074305;28;20463;-53
2023/05/10 03:30:46;;;;;;;7.00;5.13;;;;;;;;;;5074186;28;20433;-54
2023/05/10 03:33:14;;;;;;;6.60;4.20;;;;;;;;;;5074002;28;20451;-53
2023/05/10 03:35:41;;;;;;;4.63;4.17;;;;;;;;;;5073953;28;20451;-54
2023/05/10 03:38:08;;;;;;;5.93;4.80;;;;;;;;;;5074187;28;20538;-56
2023/05/10 03:40:35;;;;;;;6.00;4.97;;;;;;;;;;5074093;28;20444;-55
2023/05/10 03:43:02;;;;;;;6.00;4.40;;;;;;;;;;5073954;28;20543;-56
2023/05/10 03:45:30;;;;;;;5.73;5.10;;;;;;;;;;5073878;28;20484;-56
2023/05/10 03:47:58;;;;;;;5.00;4.50;;;;;;;;;;5073772;28;20455;-56
2023/05/10 03:50:26;;;;;;;4.67;4.27;;;;;;;;;;5073992;28;20887;-56
2023/05/10 03:52:53;;;;;;;4.70;4.30;;;;;;;;;;5073875;28;20578;-54
2023/05/10 03:55:20;;;;;;;6.37;5.00;;;;;;;;;;5073728;28;20588;-56
2023/05/10 03:57:49;;;;;;;5.10;4.70;;;;;;;;;;5073558;28;20947;-56
2023/05/10 04:00:16;;;;;;;4.87;4.47;;;;;;;;;;5073540;28;20542;-56
2023/05/10 04:02:43;;;;;;;5.07;4.47;;;;;;;;;;5073690;28;20454;-56
2023/05/10 04:05:10;;;;;;;7.43;4.37;;;;;;;;;;5073499;28;20455;-56
2023/05/10 04:07:38;;;;;;;5.53;4.77;;;;;;;;;;5073550;28;20488;-55
2023/05/10 04:10:06;;;;;;;5.30;4.80;;;;;;;;;;5073442;28;20448;-56
2023/05/10 04:12:33;;;;;;;9.57;5.37;;;;;;;;;;5073331;28;20513;-56
2023/05/10 04:15:00;;;;;;;6.40;4.67;;;;;;;;;;5073236;28;20517;-56
2023/05/10 04:17:26;;;;;;;6.23;4.17;;;;;;;;;;5073150;28;20965;-58
2023/05/10 04:19:54;;;;;;;4.10;3.70;;;;;;;;;;5073475;28;20474;-57
2023/05/10 04:22:21;;;;;;;7.13;5.33;;;;;;;;;;5073633;28;20429;-56
2023/05/10 04:24:49;;;;;;;5.00;4.60;;;;;;;;;;5073259;28;20448;-56
2023/05/10 04:27:16;;;;;;;4.40;4.00;;;;;;;;;;5073057;28;20480;-56
2023/05/10 04:29:43;;;;;;;4.67;4.27;;;;;;;;;;5072562;28;20452;-51
2023/05/10 04:32:10;;;;;;;5.00;4.50;;;;;;;;;;5073220;28;20427;-51
2023/05/10 04:34:37;;;;;;;6.73;4.33;;;;;;;;;;5073160;28;20448;-54
2023/05/10 04:37:04;;;;;;;5.63;4.33;;;;;;;;;;5073072;28;20429;-56
2023/05/10 04:39:32;;;;;;;5.13;4.60;;;;;;;;;;5073073;28;20513;-56
2023/05/10 04:42:00;;;;;;;5.53;3.90;;;;;;;;;;5072868;28;20483;-55
2023/05/10 04:44:27;;;;;;;5.27;4.57;;;;;;;;;;5073115;28;20452;-57
2023/05/10 04:46:53;;;;;;;5.57;4.40;;;;;;;;;;5072915;28;20484;-57
2023/05/10 04:49:20;;;;;;;5.37;4.20;;;;;;;;;;5073048;28;20447;-56
2023/05/10 04:51:47;;;;;;;4.90;4.30;;;;;;;;;;5073169;28;20452;-57
2023/05/10 04:54:14;;;;;;;3.87;3.57;;;;;;;;;;5072961;28;20803;-56
2023/05/10 04:56:41;;;;;;;6.17;4.40;;;;;;;;;;5072768;28;20434;-56
2023/05/10 04:59:09;;;;;;;4.43;3.83;;;;;;;;;;5072877;28;20460;-55
2023/05/10 05:01:36;;;;;;;4.87;4.47;;;;;;;;;;5072829;28;20796;-56
2023/05/10 05:04:03;;;;;;;6.83;4.70;;;;;;;;;;5072799;28;20422;-57
2023/05/10 05:06:30;;;;;;;7.17;4.37;;;;;;;;;;5072637;28;20503;-58
2023/05/10 05:08:57;;;;;;;4.63;3.70;;;;;;;;;;5072724;28;20452;-57
2023/05/10 05:11:25;;;;;;;6.30;4.23;;;;;;;;;;5072637;28;20447;-58
2023/05/10 05:13:52;;;;;;;4.50;3.93;;;;;;;;;;5072651;28;20451;-56
2023/05/10 05:16:20;;;;;;;4.53;4.10;;;;;;;;;;5072810;28;20454;-57
2023/05/10 05:18:47;;;;;;;5.73;5.03;;;;;;;;;;5072657;28;20419;-58
2023/05/10 05:21:17;;;;;;;4.83;4.33;;;;;;;;;;5072599;28;20483;-57
2023/05/10 05:23:44;;;;;;;4.00;3.60;;;;;;;;;;5072458;28;20476;-56
2023/05/10 05:26:10;;;;;;;4.53;4.10;;;;;;;;;;5072563;28;20945;-57
2023/05/10 05:28:37;;;;;;;3.93;3.50;;;;;;;;;;5072465;28;21008;-56
2023/05/10 05:31:05;;;;;;;4.10;3.70;;;;;;;;;;5072638;28;20448;-57
2023/05/10 05:33:33;;;;;;;3.50;3.30;;;;;;;;;;5072525;28;20480;-57
2023/05/10 05:36:02;;;;;;;3.73;3.43;;;;;;;;;;5072474;28;20789;-58
2023/05/10 05:38:28;;;;;;;5.00;4.00;;;;;;;;;;5072296;28;20807;-58
2023/05/10 05:40:55;;;;;;;4.03;3.57;;;;;;;;;;5073243;28;20534;-58
2023/05/10 05:43:22;;;;;;;3.97;2.87;;;;;;;;;;5076391;28;20461;-57
2023/05/10 05:45:49;;;;;;;5.60;3.73;;;;;;;;;;5076082;28;20454;-58
2023/05/10 05:48:16;;;;;;;3.83;3.53;;;;;;;;;;5076110;28;20542;-59
2023/05/10 05:50:45;;;;;;;3.90;3.50;;;;;;;;;;5075990;28;20451;-56
2023/05/10 05:53:12;;;;;;;3.63;3.03;;;;;;;;;;5076319;28;20522;-57
2023/05/10 05:55:39;;;;;;;6.13;3.37;;;;;;;;;;5076148;28;20526;-58
2023/05/10 05:58:05;;;;;;;4.57;3.10;;;;;;;;;;5075983;28;20546;-58
2023/05/10 06:00:32;;;;;;;4.40;3.20;;;;;;;;;;5075740;28;20955;-58
2023/05/10 06:02:59;;;;;;;14.63;6.27;;;;;;;;;;5076014;28;20471;-57
2023/05/10 06:05:26;;;;;;;5.77;3.40;;;;;;;;;;5075636;28;20454;-57
2023/05/10 06:07:54;;;;;;;5.00;3.37;;;;;;;;;;5075848;28;20523;-57
2023/05/10 06:10:21;;;;;;;9.57;2.80;;;;;;;;;;5075886;28;20487;-58
2023/05/10 06:12:48;;;;;;;6.03;3.73;;;;;;;;;;5076116;28;20494;-56
2023/05/10 06:15:15;;;;;;;2.93;2.57;;;;;;;;;;5075586;28;20456;-57
2023/05/10 06:17:43;;;;;;;2.97;2.43;;;;;;;;;;5075609;28;20452;-56
2023/05/10 06:20:10;;;;;;;3.70;2.90;;;;;;;;;;5075386;28;20517;-56
2023/05/10 06:22:37;;;;;;;9.10;3.50;;;;;;;;;;5075699;28;20498;-57
2023/05/10 06:25:06;;;;;;;4.93;2.60;;;;;;;;;;5075461;28;20545;-58
2023/05/10 06:27:33;;;;;;;2.70;2.50;;;;;;;;;;5075527;28;20859;-58
2023/05/10 06:30:00;;;;;;;3.67;2.50;;;;;;;;;;5075444;28;20466;-58
2023/05/10 06:32:26;;;;;;;4.20;3.80;;;;;;;;;;5074898;28;20496;-58
2023/05/10 06:34:53;;;;;;;3.50;3.00;;;;;;;;;;5075366;28;20458;-58
2023/05/10 06:37:20;;;;;;;5.97;3.47;;;;;;;;;;5075277;28;20528;-57
2023/05/10 06:39:48;;;;;;;3.90;3.17;;;;;;;;;;5075187;28;20458;-58
2023/05/10 06:42:16;;;;;;;2.63;2.43;;;;;;;;;;5074860;28;20474;-59
2023/05/10 06:44:43;;;;;;;6.70;2.50;;;;;;;;;;5074530;28;20508;-58
2023/05/10 06:47:10;;;;;;;4.80;2.13;;;;;;;;;;5074237;28;21007;-58
2023/05/10 06:49:37;;;;;;;4.60;3.27;;;;;;;;;;5074736;28;20834;-58
2023/05/10 06:52:04;;;;;;;3.03;2.23;;;;;;;;;;5074616;28;20456;-55
2023/05/10 06:54:31;;;;;;;4.30;2.10;;;;;;;;;;5074972;28;20459;-56
2023/05/10 06:56:58;;;;;;;3.13;2.83;;;;;;;;;;5074779;28;20819;-56
2023/05/10 06:59:26;;;;;;;5.30;3.10;;;;;;;;;;5074764;28;20450;-57
2023/05/10 07:01:53;;;;;;;3.87;2.10;;;;;;;;;;5074616;28;20445;-56
2023/05/10 07:04:20;;;;;;;3.27;2.50;;;;;;;;;;5074915;28;20453;-58
2023/05/10 07:06:50;;;;;;;6.00;2.40;;;;;;;;;;5074729;28;20484;-61
2023/05/10 07:09:17;;;;;;;2.87;2.13;;;;;;;;;;5074613;28;20448;-56
2023/05/10 07:11:44;;;;;;;4.67;2.50;;;;;;;;;;5074510;28;20446;-56
2023/05/10 07:14:11;;;;;;;3.23;2.40;;;;;;;;;;5074434;28;20453;-56
2023/05/10 07:16:39;;;;;;;6.43;2.50;;;;;;;;;;5074032;28;20935;-59
2023/05/10 07:19:07;;;;;;;2.93;2.63;;;;;;;;;;5074581;28;20945;-58
2023/05/10 07:21:34;;;;;;;9.87;2.77;;;;;;;;;;5074282;28;20502;-57
2023/05/10 07:24:01;;;;;;;3.47;2.20;;;;;;;;;;5074332;28;20540;-57
2023/05/10 07:26:28;;;;;;;5.73;2.57;;;;;;;;;;5074369;28;20536;-58
2023/05/10 07:28:55;;;;;;;2.50;2.20;;;;;;;;;;5074195;28;20489;-57
2023/05/10 07:31:22;;;;;;;2.80;2.20;;;;;;;;;;5074378;28;20507;-57
2023/05/10 07:33:50;;;;;;;3.77;3.07;;;;;;;;;;5073914;28;20975;-57
2023/05/10 07:36:17;;;;;;;2.70;1.80;;;;;;;;;;5073994;28;20449;-58
2023/05/10 07:38:44;;;;;;;2.40;2.20;;;;;;;;;;5074026;28;20541;-57
2023/05/10 07:41:12;;;;;;;2.80;2.47;;;;;;;;;;5073692;28;20565;-59
2023/05/10 07:43:39;;;;;;;2.80;2.40;;;;;;;;;;5073944;28;20447;-58
2023/05/10 07:46:06;;;;;;;3.43;2.90;;;;;;;;;;5073941;28;20690;-57
2023/05/10 07:48:34;;;;;;;3.27;2.97;;;;;;;;;;5073539;28;21015;-57
2023/05/10 07:51:02;;;;;;;2.40;2.20;;;;;;;;;;5073728;28;20805;-57
2023/05/10 07:53:29;;;;;;;3.00;2.37;;;;;;;;;;5073539;28;20938;-56
2023/05/10 07:55:58;;;;;;;2.57;2.33;;;;;;;;;;5073641;28;20445;-57
2023/05/10 07:58:25;;;;;;;2.37;2.17;;;;;;;;;;5073707;28;20461;-57
2023/05/10 08:00:52;;;;;;;2.70;2.50;;;;;;;;;;5073692;28;20477;-57
2023/05/10 08:03:19;;;;;;;2.70;2.50;;;;;;;;;;5072887;28;20493;-58
2023/05/10 08:05:46;;;;;;;7.90;2.73;;;;;;;;;;5073445;28;20453;-57
2023/05/10 08:08:14;;;;;;;2.47;2.27;;;;;;;;;;5073306;28;20596;-57
2023/05/10 08:10:41;;;;;;;4.10;2.17;;;;;;;;;;5073505;28;20525;-57
2023/05/10 08:13:08;;;;;;;6.87;2.03;;;;;;;;;;5073499;28;20535;-58
2023/05/10 08:15:35;;;;;;;2.43;2.33;;;;;;;;;;5073406;28;20866;-57
2023/05/10 08:18:02;;;;;;;2.97;2.63;;;;;;;;;;5073543;28;20465;-58
2023/05/10 08:20:29;;;;;;;2.57;2.33;;;;;;;;;;5073191;28;20484;-57
2023/05/10 08:22:56;;;;;;;2.40;2.20;;;;;;;;;;5073040;28;20542;-57
2023/05/10 08:25:24;;;;;;;4.93;2.53;;;;;;;;;;5073435;28;20486;-59
2023/05/10 08:27:51;;;;;;;3.43;2.30;;;;;;;;;;5072945;28;21014;-58
2023/05/10 08:30:18;;;;;;;2.50;2.30;;;;;;;;;;5073202;28;20472;-57
2023/05/10 08:32:45;;;;;;;4.63;2.30;;;;;;;;;;5073123;28;20546;-57
2023/05/10 08:35:11;;;;;;;2.70;2.50;;;;;;;;;;5072995;28;20462;-58
2023/05/10 08:37:38;;;;;;;2.50;2.27;;;;;;;;;;5072961;28;20731;-58
2023/05/10 08:40:06;;;;;;;2.80;2.33;;;;;;;;;;5073212;28;20559;-58
2023/05/10 08:42:37;;;;;;;2.57;2.37;;;;;;;;;;5072936;28;20566;-58
2023/05/10 08:45:04;;;;;;;2.20;2.10;;;;;;;;;;5073056;28;20447;-58
2023/05/10 08:47:31;;;;;;;2.70;2.50;;;;;;;;;;5072881;28;20505;-58
2023/05/10 08:49:59;;;;;;;2.70;2.43;;;;;;;;;;5072720;28;20447;-58
2023/05/10 08:52:27;;;;;;;2.90;2.70;;;;;;;;;;5073026;28;20441;-58
2023/05/10 08:54:54;;;;;;;3.20;2.90;;;;;;;;;;5072817;28;20496;-58
2023/05/10 08:57:21;;;;;;;2.50;2.30;;;;;;;;;;5073113;28;20450;-58
2023/05/10 08:59:49;;;;;;;4.73;2.17;;;;;;;;;;5072811;28;20447;-58
2023/05/10 09:02:16;;;;;;;2.73;2.40;;;;;;;;;;5072684;28;20446;-58
2023/05/10 09:04:43;;;;;;;5.73;2.20;;;;;;;;;;5072829;28;20451;-58
2023/05/10 09:07:10;;;;;;;3.20;2.30;;;;;;;;;;5072919;28;20450;-58
2023/05/10 09:09:38;;;;;;;2.10;2.00;;;;;;;;;;5072760;28;20455;-58
2023/05/10 09:12:06;;;;;;;3.23;2.70;;;;;;;;;;5072812;28;20446;-59
2023/05/10 09:14:34;;;;;;;3.47;2.50;;;;;;;;;;5072938;28;20530;-58
2023/05/10 09:17:03;;;;;;;5.50;2.90;;;;;;;;;;5076592;28;20533;-58
2023/05/10 09:19:29;;;;;;;5.73;2.60;;;;;;;;;;5077066;28;20445;-58
2023/05/10 09:21:56;;;;;;;2.53;2.33;;;;;;;;;;5076723;28;20932;-58
2023/05/10 09:24:27;;;;;;;2.43;2.23;;;;;;;;;;5076768;28;20462;-58
2023/05/10 09:26:54;;;;;;;2.70;2.60;;;;;;;;;;5076563;28;20458;-58
2023/05/10 09:29:21;;;;;;;6.50;2.40;;;;;;;;;;5076431;28;20489;-58
2023/05/10 09:31:50;;;;;;;3.23;2.50;;;;;;;;;;5076302;28;20464;-58
2023/05/10 09:34:20;;;;;;;3.20;2.17;;;;;;;;;;5076667;28;20458;-58
2023/05/10 09:36:53;;;;;;;3.20;2.17;;;;;;;;;;5076446;28;20462;-58
2023/05/10 09:39:21;;;;;;;3.93;3.00;;;;;;;;;;5076302;28;20475;-58
2023/05/10 09:41:48;;;;;;;2.73;2.53;;;;;;;;;;5075988;28;20486;-57
2023/05/10 09:44:19;;;;;;;2.80;2.60;;;;;;;;;;5076000;28;20469;-59
2023/05/10 09:46:50;;;;;;;3.30;2.20;;;;;;;;;;5076217;28;20617;-58
2023/05/10 09:49:17;;;;;;;3.80;2.90;;;;;;;;;;5076195;28;20490;-58
2023/05/10 09:51:45;;;;;;;7.57;2.37;;;;;;;;;;5076175;28;20479;-58
2023/05/10 09:54:13;;;;;;;3.43;2.40;;;;;;;;;;5076042;28;20461;-58
2023/05/10 09:56:40;;;;;;;6.33;2.40;;;;;;;;;;5075874;28;20883;-59
2023/05/10 09:59:08;;;;;;;2.73;2.30;;;;;;;;;;5076093;28;20900;-59
2023/05/10 10:01:35;;;;;;;5.20;3.00;;;;;;;;;;5075891;28;20461;-58
2023/05/10 10:04:04;;;;;;;3.10;1.90;;;;;;;;;;5076045;28;20501;-59
2023/05/10 10:06:31;;;;;;;2.43;2.23;;;;;;;;;;5075710;28;20879;-58
2023/05/10 10:08:59;;;;;;;2.87;2.67;;;;;;;;;;5075657;28;20572;-59
2023/05/10 10:11:27;;;;;;;2.63;2.43;;;;;;;;;;5075634;28;20458;-59
2023/05/10 10:13:54;;;;;;;3.00;2.20;;;;;;;;;;5075982;28;20452;-59
2023/05/10 10:16:21;;;;;;;2.20;2.10;;;;;;;;;;5075793;28;20921;-59
2023/05/10 10:18:48;;;;;;;3.43;2.73;;;;;;;;;;5075535;28;20802;-60
2023/05/10 10:21:16;;;;;;;2.90;2.70;;;;;;;;;;5075596;28;20541;-59
2023/05/10 10:23:43;;;;;;;2.70;2.60;;;;;;;;;;5075532;28;20448;-59
2023/05/10 10:26:12;;;;;;;2.33;2.13;;;;;;;;;;5075014;28;20452;-59
2023/05/10 10:28:42;;;;;;;2.47;2.37;;;;;;;;;;5075397;28;20681;-59
2023/05/10 10:31:17;;;;;;;2.63;2.20;;;;;;;;;;5075564;28;20471;-59
2023/05/10 10:33:57;;;;;;;2.53;2.40;;;;;;;;;;5075261;28;20447;-59
2023/05/10 10:36:26;;;;;;;3.73;2.30;;;;;;;;;;5075234;28;20935;-59
2023/05/10 10:38:59;;;;;;;2.80;2.57;;;;;;;;;;5075219;28;20444;-59
2023/05/10 10:41:31;;;;;;;2.80;2.60;;;;;;;;;;5075140;28;20993;-59
2023/05/10 10:44:16;;;;;;;4.70;2.43;;;;;;;;;;5075045;28;20512;-59
2023/05/10 10:46:58;;;;;;;2.83;2.03;;;;;;;;;;5075187;28;20481;-59
2023/05/10 10:49:25;;;;;;;5.37;2.20;;;;;;;;;;5075151;28;20571;-59
2023/05/10 10:52:19;;;;;;;3.30;2.60;;;;;;;;;;5074814;28;20558;-59
2023/05/10 10:54:51;;;;;;;3.90;2.00;;;;;;;;;;5039259;28;20456;-59
2023/05/10 10:57:21;;;;;;;3.07;2.40;;;;;;;;;;5074742;28;20460;-59
2023/05/10 10:59:48;;;;;;;3.77;2.23;;;;;;;;;;5074888;28;20531;-59
2023/05/10 11:02:30;;;;;;;2.60;2.40;;;;;;;;;;5074757;28;20963;-59
2023/05/10 11:04:57;;;;;;;3.83;2.40;;;;;;;;;;5074516;28;20450;-59
2023/05/10 11:07:24;;;;;;;4.70;2.80;;;;;;;;;;5074622;28;20534;-59
2023/05/10 11:09:51;;;;;;;4.47;2.30;;;;;;;;;;5074466;28;20952;-59
2023/05/10 11:12:20;;;;;;;5.23;2.30;;;;;;;;;;5074936;28;20931;-59
2023/05/10 11:14:51;;;;;;;5.43;2.37;;;;;;;;;;5074757;28;20939;-59
2023/05/10 11:17:24;;;;;;;4.30;2.37;;;;;;;;;;5074495;28;20451;-59
2023/05/10 11:20:09;;;;;;;4.47;2.47;;;;;;;;;;5074234;28;20452;-59
2023/05/10 11:22:51;;;;;;;3.70;2.17;;;;;;;;;;5074503;28;20452;-59
2023/05/10 11:25:18;;;;;;;7.50;2.43;;;;;;;;;;5074365;28;20858;-59
2023/05/10 11:27:46;;;;;;;2.80;2.53;;;;;;;;;;5074080;28;20539;-59
2023/05/10 11:30:14;;;;;;;5.93;2.20;;;;;;;;;;5074184;28;20454;-59
2023/05/10 11:32:41;;;;;;;5.27;2.30;;;;;;;;;;5073920;28;20505;-59
2023/05/10 11:35:09;;;;;;;2.87;2.60;;;;;;;;;;5074231;28;20543;-59
2023/05/10 11:37:36;;;;;;;4.30;2.23;;;;;;;;;;5073996;28;20459;-59
2023/05/10 11:40:03;;;;;;;4.53;2.33;;;;;;;;;;5073952;28;20455;-59
2023/05/10 11:42:30;;;;;;;3.30;2.53;;;;;;;;;;5073783;28;20562;-59
2023/05/10 11:44:59;;;;;;;7.60;2.90;;;;;;;;;;5073780;28;20822;-59
2023/05/10 11:47:25;;;;;;;3.77;1.67;;;;;;;;;;5073722;28;21026;-59
2023/05/10 11:49:53;;;;;;;3.00;1.70;;;;;;;;;;5073970;28;20483;-59
2023/05/10 11:52:20;;;;;;;6.57;2.57;;;;;;;;;;5073978;28;20444;-59
2023/05/10 11:54:52;;;;;;;4.87;2.23;;;;;;;;;;5073744;28;20463;-59
2023/05/10 11:57:20;;;;;;;7.37;2.40;;;;;;;;;;5073505;28;21001;-59
2023/05/10 11:59:46;;;;;;;10.87;2.70;;;;;;;;;;5073599;28;20505;-59
2023/05/10 12:02:15;;;;;;;4.03;2.00;;;;;;;;;;5073634;28;20454;-59
2023/05/10 12:04:42;;;;;;;4.77;1.97;;;;;;;;;;5073536;28;20456;-59
2023/05/10 12:07:09;;;;;;;7.43;2.00;;;;;;;;;;5073396;28;20538;-59
2023/05/10 12:09:36;;;;;;;3.03;1.83;;;;;;;;;;5073201;28;20479;-59
2023/05/10 12:12:03;;;;;;;3.67;2.23;;;;;;;;;;5073188;28;20447;-59
2023/05/10 12:14:33;;;;;;;3.67;2.07;;;;;;;;;;5073406;28;20529;-59
2023/05/10 12:17:00;;;;;;;5.03;2.53;;;;;;;;;;5073359;28;20538;-59
2023/05/10 12:19:28;;;;;;;2.33;1.80;;;;;;;;;;5073279;28;20542;-59
2023/05/10 12:21:55;;;;;;;2.50;1.83;;;;;;;;;;5073510;28;20444;-59
2023/05/10 12:24:22;;;;;;;4.57;1.97;;;;;;;;;;5072979;28;20451;-59
2023/05/10 12:26:48;;;;;;;2.67;1.73;;;;;;;;;;5073015;28;20451;-59
2023/05/10 12:29:16;;;;;;;2.57;1.60;;;;;;;;;;5073203;28;20505;-59
2023/05/10 12:31:53;;;;;;;3.77;2.20;;;;;;;;;;5073069;28;20455;-59
2023/05/10 12:34:24;;;;;;;6.90;2.20;;;;;;;;;;5072988;28;20462;-59
2023/05/10 12:36:53;;;;;;;1.70;1.60;;;;;;;;;;5072874;28;20947;-59
2023/05/10 12:39:20;;;;;;;4.03;2.20;;;;;;;;;;5073018;28;20452;-59
2023/05/10 12:41:46;;;;;;;3.57;1.80;;;;;;;;;;5072724;28;21156;-59
2023/05/10 12:44:13;;;;;;;1.90;1.80;;;;;;;;;;5072985;28;20534;-59
2023/05/10 12:46:40;;;;;;;1.93;1.83;;;;;;;;;;5072928;28;20444;-59
2023/05/10 12:49:07;;;;;;;9.17;2.13;;;;;;;;;;5072607;28;20476;-57
2023/05/10 12:51:34;;;;;;;3.73;2.00;;;;;;;;;;5072569;28;20448;-59
2023/05/10 12:54:03;;;;;;;2.00;1.90;;;;;;;;;;5072681;28;20447;-58
2023/05/10 12:56:32;;;;;;;2.03;1.80;;;;;;;;;;5072945;28;20448;-58
2023/05/10 12:59:02;;;;;;;5.17;4.87;;;;;;;;;;5072766;28;20474;-61
2023/05/10 13:01:31;;;;;;;4.63;1.97;;;;;;;;;;5072831;28;20944;-58
2023/05/10 13:04:07;;;;;;;3.70;1.93;;;;;;;;;;5072676;28;20447;-58
2023/05/10 13:06:34;;;;;;;2.70;1.90;;;;;;;;;;5072800;28;20813;-57
2023/05/10 13:09:03;;;;;;;5.50;1.83;;;;;;;;;;5072807;28;20472;-57
2023/05/10 13:11:30;;;;;;;6.60;1.93;;;;;;;;;;5072623;28;20943;-57
2023/05/10 13:13:57;;;;;;;2.57;2.07;;;;;;;;;;5072580;28;20525;-57
2023/05/10 13:16:23;;;;;;;1.87;1.73;;;;;;;;;;5072514;28;20962;-57
2023/05/10 13:18:50;;;;;;;7.73;1.83;;;;;;;;;;5072443;28;20547;-57
2023/05/10 13:21:17;;;;;;;1.57;1.47;;;;;;;;;;5072511;28;20454;-58
2023/05/10 13:23:44;;;;;;;1.97;1.83;;;;;;;;;;5072834;28;21026;-57
2023/05/10 13:26:16;;;;;;;5.43;1.67;;;;;;;;;;5072220;28;20452;-57
2023/05/10 13:28:48;;;;;;;2.47;1.67;;;;;;;;;;5072706;28;20810;-57
2023/05/10 13:31:15;;;;;;;7.53;1.90;;;;;;;;;;5072378;28;20454;-58
2023/05/10 13:33:42;;;;;;;4.47;1.80;;;;;;;;;;5072538;28;20555;-59
2023/05/10 13:36:09;;;;;;;2.10;1.70;;;;;;;;;;5072496;28;20955;-58
2023/05/10 13:38:36;;;;;;;2.03;1.83;;;;;;;;;;5072461;28;20444;-58
2023/05/10 13:41:03;;;;;;;1.80;1.70;;;;;;;;;;5072167;28;20478;-58
2023/05/10 13:43:31;;;;;;;3.80;1.90;;;;;;;;;;5072382;28;20882;-58
2023/05/10 13:45:58;;;;;;;1.63;1.53;;;;;;;;;;5072097;28;20947;-58
2023/05/10 13:48:25;;;;;;;2.75;1.90;;;;;;;;;;5071653;28;20448;-58
2023/05/10 13:50:52;;;;;;;3.10;1.50;;;;;;;;;;5072133;28;20221;-58
2023/05/10 13:53:19;;;;;;;5.33;1.90;;;;;;;;;;5072134;28;20448;-57
2023/05/10 13:55:46;;;;;;;4.63;2.27;;;;;;;;;;5072153;28;20531;-58
2023/05/10 13:58:13;;;;;;;5.20;1.77;;;;;;;;;;5072041;28;20814;-58
2023/05/10 14:00:41;;;;;;;1.97;1.87;;;;;;;;;;5071989;28;20538;-58
2023/05/10 14:03:10;;;;;;;3.80;1.80;;;;;;;;;;5074739;28;21073;-58
2023/05/10 14:05:37;;;;;;;2.10;2.00;;;;;;;;;;5075802;28;20440;-58
2023/05/10 14:08:04;;;;;;;3.50;2.13;;;;;;;;;;5075848;28;20480;-58
2023/05/10 14:10:31;;;;;;;4.30;2.10;;;;;;;;;;5090575;28;20510;-58
2023/05/10 14:12:58;;;;;;;5.23;1.80;;;;;;;;;;5095843;28;20539;-58
2023/05/10 14:15:25;;;;;;;3.20;1.60;;;;;;;;;;5095548;28;20553;-58
2023/05/10 14:17:53;;;;;;;4.17;2.53;;;;;;;;;;5094364;28;20451;-58
2023/05/10 14:20:20;;;;;;;10.23;2.40;;;;;;;;;;5094780;28;20537;-58
2023/05/10 14:22:47;;;;;;;2.67;2.43;;;;;;;;;;5095642;28;20459;-58
2023/05/10 14:25:14;;;;;;;2.23;2.10;;;;;;;;;;5094803;28;20882;-58
2023/05/10 14:27:41;;;;;;;2.30;1.90;;;;;;;;;;5095682;28;21062;-59
2023/05/10 14:30:09;;;;;;;2.13;1.73;;;;;;;;;;5095701;28;20482;-59
2023/05/10 14:32:36;;;;;;;2.10;2.00;;;;;;;;;;5095680;28;20538;-58
2023/05/10 14:35:05;;;;;;;3.30;1.67;;;;;;;;;;5095704;28;21001;-59
2023/05/10 14:37:32;;;;;;;1.93;1.73;;;;;;;;;;5095442;28;20458;-58
2023/05/10 14:39:59;;;;;;;2.07;1.63;;;;;;;;;;5095567;28;20462;-59
2023/05/10 14:42:26;;;;;;;2.47;2.27;;;;;;;;;;5095166;28;21034;-58
2023/05/10 14:44:53;;;;;;;2.40;2.00;;;;;;;;;;5095459;28;20451;-59
2023/05/10 14:47:20;;;;;;;2.50;2.03;;;;;;;;;;5095441;28;20451;-58
2023/05/10 14:49:47;;;;;;;3.57;1.80;;;;;;;;;;5095615;28;20475;-59